sensor_id;sensor_type;location;lat;lon;timestamp;pressure;altitude;pressure_sealevel;temperature;humidity
10712;BME280;5407;51.234;6.804;2023-11-19T00:00:45;100429.38;;;11.70;100.00
10712;BME280;5407;51.234;6.804;2023-11-19T00:03:14;100430.88;;;11.67;100.00
10712;BME280;5407;51.234;6.804;2023-11-19T00:05:41;100420.63;;;11.76;100.00
10712;BME280;5407;51.234;6.804;2023-11-19T00:08:08;100415.41;;;11.83;100.00
10712;BME280;5407;51.234;6.804;2023-11-19T00:10:35;100434.03;;;11.88;100.00
10712;BME280;5407;51.234;6.804;2023-11-19T00:13:02;100433.81;;;11.78;100.00
10712;BME280;5407;51.234;6.804;2023-11-19T00:15:29;100474.56;;;11.88;100.00
10712;BME280;5407;51.234;6.804;2023-11-19T00:17:57;100481.81;;;11.84;100.00
10712;BME280;5407;51.234;6.804;2023-11-19T00:20:25;100482.00;;;12.29;100.00
10712;BME280;5407;51.234;6.804;2023-11-19T00:22:52;100479.13;;;12.41;100.00
10712;BME280;5407;51.234;6.804;2023-11-19T00:25:20;100478.63;;;12.55;100.00
10712;BME280;5407;51.234;6.804;2023-11-19T00:27:47;100468.97;;;12.57;100.00
10712;BME280;5407;51.234;6.804;2023-11-19T00:30:14;100465.34;;;12.50;100.00
10712;BME280;5407;51.234;6.804;2023-11-19T00:32:42;100470.00;;;12.49;100.00
10712;BME280;5407;51.234;6.804;2023-11-19T00:35:09;100464.28;;;12.54;100.00
10712;BME280;5407;51.234;6.804;2023-11-19T00:37:38;100459.16;;;12.49;100.00
10712;BME280;5407;51.234;6.804;2023-11-19T00:40:06;100469.19;;;12.49;100.00
10712;BME280;5407;51.234;6.804;2023-11-19T00:42:35;100455.91;;;12.40;100.00
10712;BME280;5407;51.234;6.804;2023-11-19T00:45:05;100453.75;;;12.49;100.00
10712;BME280;5407;51.234;6.804;2023-11-19T00:47:34;100457.72;;;12.55;100.00
10712;BME280;5407;51.234;6.804;2023-11-19T00:50:04;100457.84;;;12.62;100.00
10712;BME280;5407;51.234;6.804;2023-11-19T00:52:57;100443.13;;;12.60;100.00
10712;BME280;5407;51.234;6.804;2023-11-19T00:55:24;100447.16;;;12.69;100.00
10712;BME280;5407;51.234;6.804;2023-11-19T00:57:51;100440.97;;;12.69;100.00
10712;BME280;5407;51.234;6.804;2023-11-19T01:00:18;100442.88;;;12.68;100.00
10712;BME280;5407;51.234;6.804;2023-11-19T01:02:46;100447.72;;;12.78;100.00
10712;BME280;5407;51.234;6.804;2023-11-19T01:05:18;100455.22;;;12.88;100.00
10712;BME280;5407;51.234;6.804;2023-11-19T01:07:47;100447.53;;;12.90;100.00
10712;BME280;5407;51.234;6.804;2023-11-19T01:10:17;100438.25;;;12.91;100.00
10712;BME280;5407;51.234;6.804;2023-11-19T01:12:44;100430.03;;;13.07;100.00
10712;BME280;5407;51.234;6.804;2023-11-19T01:15:11;100432.38;;;12.86;100.00
10712;BME280;5407;51.234;6.804;2023-11-19T01:17:41;100440.28;;;12.94;100.00
10712;BME280;5407;51.234;6.804;2023-11-19T01:20:09;100440.69;;;12.96;100.00
10712;BME280;5407;51.234;6.804;2023-11-19T01:22:38;100426.34;;;13.18;100.00
10712;BME280;5407;51.234;6.804;2023-11-19T01:25:06;100427.84;;;13.15;100.00
10712;BME280;5407;51.234;6.804;2023-11-19T01:27:35;100419.16;;;13.03;100.00
10712;BME280;5407;51.234;6.804;2023-11-19T01:30:02;100421.53;;;13.08;100.00
10712;BME280;5407;51.234;6.804;2023-11-19T01:32:29;100431.56;;;13.30;100.00
10712;BME280;5407;51.234;6.804;2023-11-19T01:34:56;100429.16;;;13.25;100.00
10712;BME280;5407;51.234;6.804;2023-11-19T01:37:23;100433.31;;;13.19;100.00
10712;BME280;5407;51.234;6.804;2023-11-19T01:39:50;100429.78;;;13.15;100.00
10712;BME280;5407;51.234;6.804;2023-11-19T01:42:17;100431.25;;;13.35;100.00
10712;BME280;5407;51.234;6.804;2023-11-19T01:44:58;100433.31;;;13.19;100.00
10712;BME280;5407;51.234;6.804;2023-11-19T01:47:25;100430.44;;;13.34;100.00
10712;BME280;5407;51.234;6.804;2023-11-19T01:49:53;100427.09;;;13.44;100.00
10712;BME280;5407;51.234;6.804;2023-11-19T01:52:23;100426.03;;;13.49;100.00
10712;BME280;5407;51.234;6.804;2023-11-19T01:54:50;100430.72;;;13.52;100.00
10712;BME280;5407;51.234;6.804;2023-11-19T01:57:19;100443.09;;;13.53;100.00
10712;BME280;5407;51.234;6.804;2023-11-19T01:59:48;100444.22;;;13.48;100.00
10712;BME280;5407;51.234;6.804;2023-11-19T02:02:18;100437.94;;;13.44;100.00
10712;BME280;5407;51.234;6.804;2023-11-19T02:04:46;100446.94;;;13.48;100.00
10712;BME280;5407;51.234;6.804;2023-11-19T02:07:14;100436.34;;;13.40;100.00
10712;BME280;5407;51.234;6.804;2023-11-19T02:09:43;100434.47;;;13.44;100.00
10712;BME280;5407;51.234;6.804;2023-11-19T02:12:10;100430.28;;;13.50;100.00
10712;BME280;5407;51.234;6.804;2023-11-19T02:14:37;100425.50;;;13.40;100.00
10712;BME280;5407;51.234;6.804;2023-11-19T02:17:05;100408.19;;;13.48;100.00
10712;BME280;5407;51.234;6.804;2023-11-19T02:19:35;100395.16;;;13.57;100.00
10712;BME280;5407;51.234;6.804;2023-11-19T02:22:02;100384.22;;;13.50;100.00
10712;BME280;5407;51.234;6.804;2023-11-19T02:24:31;100376.56;;;13.55;100.00
10712;BME280;5407;51.234;6.804;2023-11-19T02:27:02;100370.31;;;13.51;100.00
10712;BME280;5407;51.234;6.804;2023-11-19T02:29:36;100368.66;;;13.73;100.00
10712;BME280;5407;51.234;6.804;2023-11-19T02:32:04;100368.84;;;13.57;100.00
10712;BME280;5407;51.234;6.804;2023-11-19T02:34:34;100367.28;;;13.56;100.00
10712;BME280;5407;51.234;6.804;2023-11-19T02:37:01;100369.47;;;13.77;100.00
10712;BME280;5407;51.234;6.804;2023-11-19T02:39:28;100370.63;;;13.76;100.00
10712;BME280;5407;51.234;6.804;2023-11-19T02:41:55;100365.94;;;13.73;100.00
10712;BME280;5407;51.234;6.804;2023-11-19T02:44:22;100366.09;;;13.87;100.00
10712;BME280;5407;51.234;6.804;2023-11-19T02:46:50;100369.41;;;13.70;100.00
10712;BME280;5407;51.234;6.804;2023-11-19T02:49:17;100375.13;;;13.65;100.00
10712;BME280;5407;51.234;6.804;2023-11-19T02:51:44;100373.88;;;13.59;100.00
10712;BME280;5407;51.234;6.804;2023-11-19T02:54:11;100384.38;;;13.60;100.00
10712;BME280;5407;51.234;6.804;2023-11-19T02:56:42;100381.69;;;13.64;100.00
10712;BME280;5407;51.234;6.804;2023-11-19T02:59:09;100384.81;;;13.66;100.00
10712;BME280;5407;51.234;6.804;2023-11-19T03:01:44;100377.69;;;13.84;100.00
10712;BME280;5407;51.234;6.804;2023-11-19T03:04:17;100379.81;;;13.68;100.00
10712;BME280;5407;51.234;6.804;2023-11-19T03:06:45;100373.78;;;13.81;100.00
10712;BME280;5407;51.234;6.804;2023-11-19T03:09:12;100358.66;;;13.80;100.00
10712;BME280;5407;51.234;6.804;2023-11-19T03:11:39;100365.66;;;13.81;100.00
10712;BME280;5407;51.234;6.804;2023-11-19T03:14:06;100357.56;;;13.85;100.00
10712;BME280;5407;51.234;6.804;2023-11-19T03:16:33;100347.59;;;13.92;100.00
10712;BME280;5407;51.234;6.804;2023-11-19T03:19:00;100342.16;;;13.92;100.00
10712;BME280;5407;51.234;6.804;2023-11-19T03:21:29;100349.91;;;13.94;100.00
10712;BME280;5407;51.234;6.804;2023-11-19T03:23:58;100354.47;;;13.86;100.00
10712;BME280;5407;51.234;6.804;2023-11-19T03:26:26;100343.34;;;13.95;100.00
10712;BME280;5407;51.234;6.804;2023-11-19T03:28:53;100350.66;;;13.91;100.00
10712;BME280;5407;51.234;6.804;2023-11-19T03:31:21;100351.53;;;13.98;100.00
10712;BME280;5407;51.234;6.804;2023-11-19T03:33:48;100352.34;;;14.06;100.00
10712;BME280;5407;51.234;6.804;2023-11-19T03:36:14;100357.28;;;13.93;100.00
10712;BME280;5407;51.234;6.804;2023-11-19T03:38:42;100358.31;;;13.82;100.00
10712;BME280;5407;51.234;6.804;2023-11-19T03:41:15;100363.22;;;14.06;100.00
10712;BME280;5407;51.234;6.804;2023-11-19T03:43:48;100363.00;;;13.88;100.00
10712;BME280;5407;51.234;6.804;2023-11-19T03:46:18;100370.13;;;14.00;100.00
10712;BME280;5407;51.234;6.804;2023-11-19T03:48:46;100356.06;;;13.91;100.00
10712;BME280;5407;51.234;6.804;2023-11-19T03:51:13;100362.25;;;13.88;100.00
10712;BME280;5407;51.234;6.804;2023-11-19T03:53:42;100374.84;;;14.06;100.00
10712;BME280;5407;51.234;6.804;2023-11-19T03:56:09;100359.28;;;14.00;100.00
10712;BME280;5407;51.234;6.804;2023-11-19T03:58:37;100376.28;;;13.97;100.00
10712;BME280;5407;51.234;6.804;2023-11-19T04:01:04;100381.22;;;13.88;100.00
10712;BME280;5407;51.234;6.804;2023-11-19T04:03:31;100396.41;;;13.96;100.00
10712;BME280;5407;51.234;6.804;2023-11-19T04:05:58;100384.00;;;13.95;100.00
10712;BME280;5407;51.234;6.804;2023-11-19T04:08:26;100390.50;;;13.87;100.00
10712;BME280;5407;51.234;6.804;2023-11-19T04:10:54;100388.47;;;13.80;100.00
10712;BME280;5407;51.234;6.804;2023-11-19T04:13:21;100381.31;;;13.95;100.00
10712;BME280;5407;51.234;6.804;2023-11-19T04:15:50;100372.69;;;13.86;100.00
10712;BME280;5407;51.234;6.804;2023-11-19T04:18:17;100369.16;;;13.82;100.00
10712;BME280;5407;51.234;6.804;2023-11-19T04:20:43;100366.44;;;13.82;100.00
10712;BME280;5407;51.234;6.804;2023-11-19T04:23:10;100371.13;;;13.85;100.00
10712;BME280;5407;51.234;6.804;2023-11-19T04:25:38;100374.97;;;13.84;100.00
10712;BME280;5407;51.234;6.804;2023-11-19T04:28:06;100373.69;;;13.74;100.00
10712;BME280;5407;51.234;6.804;2023-11-19T04:30:33;100391.53;;;13.75;100.00
10712;BME280;5407;51.234;6.804;2023-11-19T04:33:01;100388.38;;;13.70;100.00
10712;BME280;5407;51.234;6.804;2023-11-19T04:35:28;100383.78;;;13.74;100.00
10712;BME280;5407;51.234;6.804;2023-11-19T04:37:55;100389.38;;;13.91;100.00
10712;BME280;5407;51.234;6.804;2023-11-19T04:40:23;100386.44;;;13.70;100.00
10712;BME280;5407;51.234;6.804;2023-11-19T04:42:49;100377.22;;;13.78;100.00
10712;BME280;5407;51.234;6.804;2023-11-19T04:45:18;100379.91;;;13.75;100.00
10712;BME280;5407;51.234;6.804;2023-11-19T04:47:45;100383.19;;;13.91;100.00
10712;BME280;5407;51.234;6.804;2023-11-19T04:50:13;100378.59;;;13.95;100.00
10712;BME280;5407;51.234;6.804;2023-11-19T04:52:39;100378.09;;;13.86;100.00
10712;BME280;5407;51.234;6.804;2023-11-19T04:55:08;100386.97;;;13.83;100.00
10712;BME280;5407;51.234;6.804;2023-11-19T04:57:37;100374.56;;;13.82;100.00
10712;BME280;5407;51.234;6.804;2023-11-19T05:00:05;100389.53;;;13.69;100.00
10712;BME280;5407;51.234;6.804;2023-11-19T05:02:34;100388.88;;;13.79;100.00
10712;BME280;5407;51.234;6.804;2023-11-19T05:05:01;100392.25;;;13.69;100.00
10712;BME280;5407;51.234;6.804;2023-11-19T05:07:29;100387.84;;;13.61;100.00
10712;BME280;5407;51.234;6.804;2023-11-19T05:09:57;100386.66;;;13.58;100.00
10712;BME280;5407;51.234;6.804;2023-11-19T05:12:24;100395.16;;;13.57;100.00
10712;BME280;5407;51.234;6.804;2023-11-19T05:14:52;100381.03;;;13.44;100.00
10712;BME280;5407;51.234;6.804;2023-11-19T05:17:19;100393.56;;;13.52;100.00
10712;BME280;5407;51.234;6.804;2023-11-19T05:19:47;100410.19;;;13.51;100.00
10712;BME280;5407;51.234;6.804;2023-11-19T05:22:14;100411.75;;;13.52;100.00
10712;BME280;5407;51.234;6.804;2023-11-19T05:24:41;100403.94;;;13.47;100.00
10712;BME280;5407;51.234;6.804;2023-11-19T05:27:09;100395.88;;;13.50;100.00
10712;BME280;5407;51.234;6.804;2023-11-19T05:29:36;100395.72;;;13.40;100.00
10712;BME280;5407;51.234;6.804;2023-11-19T05:32:04;100396.22;;;13.49;100.00
10712;BME280;5407;51.234;6.804;2023-11-19T05:34:32;100421.44;;;13.53;100.00
10712;BME280;5407;51.234;6.804;2023-11-19T05:37:01;100414.19;;;13.60;100.00
10712;BME280;5407;51.234;6.804;2023-11-19T05:39:28;100427.59;;;13.50;100.00
10712;BME280;5407;51.234;6.804;2023-11-19T05:41:55;100422.16;;;13.50;100.00
10712;BME280;5407;51.234;6.804;2023-11-19T05:44:22;100406.47;;;13.62;100.00
10712;BME280;5407;51.234;6.804;2023-11-19T05:46:49;100414.34;;;13.45;100.00
10712;BME280;5407;51.234;6.804;2023-11-19T05:49:16;100407.97;;;13.60;100.00
10712;BME280;5407;51.234;6.804;2023-11-19T05:51:43;100412.06;;;13.47;100.00
10712;BME280;5407;51.234;6.804;2023-11-19T05:54:13;100412.16;;;13.54;100.00
10712;BME280;5407;51.234;6.804;2023-11-19T05:56:40;100408.28;;;13.55;100.00
10712;BME280;5407;51.234;6.804;2023-11-19T05:59:07;100416.75;;;13.50;100.00
10712;BME280;5407;51.234;6.804;2023-11-19T06:01:40;100415.91;;;13.46;100.00
10712;BME280;5407;51.234;6.804;2023-11-19T06:04:11;100421.84;;;13.55;100.00
10712;BME280;5407;51.234;6.804;2023-11-19T06:06:38;100436.22;;;13.59;100.00
10712;BME280;5407;51.234;6.804;2023-11-19T06:09:06;100431.09;;;13.50;100.00
10712;BME280;5407;51.234;6.804;2023-11-19T06:11:36;100433.41;;;13.52;100.00
10712;BME280;5407;51.234;6.804;2023-11-19T06:14:03;100428.47;;;13.57;100.00
10712;BME280;5407;51.234;6.804;2023-11-19T06:16:31;100428.97;;;13.37;100.00
10712;BME280;5407;51.234;6.804;2023-11-19T06:18:58;100436.66;;;13.35;100.00
10712;BME280;5407;51.234;6.804;2023-11-19T06:21:26;100433.91;;;13.31;100.00
10712;BME280;5407;51.234;6.804;2023-11-19T06:23:53;100439.06;;;13.40;100.00
10712;BME280;5407;51.234;6.804;2023-11-19T06:26:20;100435.88;;;13.34;100.00
10712;BME280;5407;51.234;6.804;2023-11-19T06:28:49;100422.59;;;13.26;100.00
10712;BME280;5407;51.234;6.804;2023-11-19T06:31:16;100423.44;;;13.30;100.00
10712;BME280;5407;51.234;6.804;2023-11-19T06:33:43;100431.25;;;13.35;100.00
10712;BME280;5407;51.234;6.804;2023-11-19T06:36:13;100421.16;;;13.32;100.00
10712;BME280;5407;51.234;6.804;2023-11-19T06:38:41;100417.59;;;13.28;100.00
10712;BME280;5407;51.234;6.804;2023-11-19T06:41:09;100423.53;;;13.37;100.00
10712;BME280;5407;51.234;6.804;2023-11-19T06:43:36;100420.31;;;13.28;100.00
10712;BME280;5407;51.234;6.804;2023-11-19T06:46:14;100431.03;;;13.21;100.00
10712;BME280;5407;51.234;6.804;2023-11-19T06:48:41;100435.03;;;13.30;100.00
10712;BME280;5407;51.234;6.804;2023-11-19T06:51:09;100431.03;;;13.21;100.00
10712;BME280;5407;51.234;6.804;2023-11-19T06:53:36;100434.16;;;13.23;100.00
10712;BME280;5407;51.234;6.804;2023-11-19T06:56:06;100427.28;;;13.29;100.00
10712;BME280;5407;51.234;6.804;2023-11-19T06:58:43;100439.63;;;13.26;100.00
10712;BME280;5407;51.234;6.804;2023-11-19T07:01:11;100425.19;;;13.19;100.00
10712;BME280;5407;51.234;6.804;2023-11-19T07:03:38;100420.72;;;13.30;100.00
10712;BME280;5407;51.234;6.804;2023-11-19T07:06:06;100430.78;;;13.29;100.00
10712;BME280;5407;51.234;6.804;2023-11-19T07:08:33;100426.75;;;13.20;100.00
10712;BME280;5407;51.234;6.804;2023-11-19T07:11:00;100432.16;;;13.20;100.00
10712;BME280;5407;51.234;6.804;2023-11-19T07:13:26;100435.56;;;13.13;100.00
10712;BME280;5407;51.234;6.804;2023-11-19T07:15:53;100436.31;;;13.14;100.00
10712;BME280;5407;51.234;6.804;2023-11-19T07:18:22;100423.78;;;13.03;100.00
10712;BME280;5407;51.234;6.804;2023-11-19T07:20:49;100432.44;;;13.12;100.00
10712;BME280;5407;51.234;6.804;2023-11-19T07:23:16;100446.94;;;13.00;100.00
10712;BME280;5407;51.234;6.804;2023-11-19T07:25:43;100447.22;;;13.17;99.38
10712;BME280;5407;51.234;6.804;2023-11-19T07:28:12;100444.16;;;13.19;99.54
10712;BME280;5407;51.234;6.804;2023-11-19T07:30:40;100440.25;;;13.16;99.47
10712;BME280;5407;51.234;6.804;2023-11-19T07:33:07;100440.81;;;13.03;99.61
10712;BME280;5407;51.234;6.804;2023-11-19T07:35:35;100436.56;;;13.28;97.76
10712;BME280;5407;51.234;6.804;2023-11-19T07:38:02;100447.41;;;13.28;96.91
10712;BME280;5407;51.234;6.804;2023-11-19T07:40:29;100449.84;;;13.11;97.85
10712;BME280;5407;51.234;6.804;2023-11-19T07:42:56;100461.19;;;13.19;96.88
10712;BME280;5407;51.234;6.804;2023-11-19T07:45:23;100461.19;;;13.19;97.79
10712;BME280;5407;51.234;6.804;2023-11-19T07:47:50;100471.50;;;13.11;96.34
10712;BME280;5407;51.234;6.804;2023-11-19T07:50:16;100475.31;;;13.32;95.49
10712;BME280;5407;51.234;6.804;2023-11-19T07:52:47;100478.38;;;13.30;94.42
10712;BME280;5407;51.234;6.804;2023-11-19T07:55:14;100490.31;;;13.52;94.28
10712;BME280;5407;51.234;6.804;2023-11-19T07:57:41;100506.91;;;13.47;93.23
10712;BME280;5407;51.234;6.804;2023-11-19T08:00:09;100495.53;;;13.38;94.25
10712;BME280;5407;51.234;6.804;2023-11-19T08:02:40;100504.09;;;13.40;93.83
10712;BME280;5407;51.234;6.804;2023-11-19T08:05:07;100507.56;;;13.40;94.71
10712;BME280;5407;51.234;6.804;2023-11-19T08:07:34;100515.81;;;13.47;93.55
10712;BME280;5407;51.234;6.804;2023-11-19T08:10:04;100518.41;;;13.40;94.74
10712;BME280;5407;51.234;6.804;2023-11-19T08:12:35;100522.94;;;13.59;93.34
10712;BME280;5407;51.234;6.804;2023-11-19T08:15:03;100539.28;;;13.62;92.99
10712;BME280;5407;51.234;6.804;2023-11-19T08:17:30;100535.34;;;13.60;93.97
10712;BME280;5407;51.234;6.804;2023-11-19T08:19:57;100546.38;;;13.70;92.32
10712;BME280;5407;51.234;6.804;2023-11-19T08:22:25;100539.84;;;13.49;94.77
10712;BME280;5407;51.234;6.804;2023-11-19T08:24:52;100556.38;;;13.66;93.94
10712;BME280;5407;51.234;6.804;2023-11-19T08:27:21;100562.47;;;13.60;93.90
10712;BME280;5407;51.234;6.804;2023-11-19T08:29:53;100543.91;;;13.62;94.01
10712;BME280;5407;51.234;6.804;2023-11-19T08:32:21;100533.88;;;13.62;94.13
10712;BME280;5407;51.234;6.804;2023-11-19T08:34:48;100538.97;;;13.67;93.67
10712;BME280;5407;51.234;6.804;2023-11-19T08:37:15;100531.91;;;13.63;93.66
10712;BME280;5407;51.234;6.804;2023-11-19T08:39:43;100522.13;;;13.55;92.86
10712;BME280;5407;51.234;6.804;2023-11-19T08:42:10;100523.28;;;13.80;93.38
10712;BME280;5407;51.234;6.804;2023-11-19T08:44:38;100527.88;;;13.76;92.94
10712;BME280;5407;51.234;6.804;2023-11-19T08:47:09;100534.03;;;13.73;91.52
10712;BME280;5407;51.234;6.804;2023-11-19T08:49:36;100538.44;;;13.84;91.57
10712;BME280;5407;51.234;6.804;2023-11-19T08:52:03;100538.84;;;14.12;89.47
10712;BME280;5407;51.234;6.804;2023-11-19T08:54:30;100536.13;;;14.42;87.78
10712;BME280;5407;51.234;6.804;2023-11-19T08:56:58;100542.63;;;14.34;87.29
10712;BME280;5407;51.234;6.804;2023-11-19T08:59:26;100540.84;;;14.15;87.35
10712;BME280;5407;51.234;6.804;2023-11-19T09:01:54;100545.59;;;14.22;87.75
10712;BME280;5407;51.234;6.804;2023-11-19T09:04:21;100536.28;;;13.97;88.51
10712;BME280;5407;51.234;6.804;2023-11-19T09:06:48;100534.25;;;14.16;87.30
10712;BME280;5407;51.234;6.804;2023-11-19T09:09:15;100546.19;;;14.12;87.23
10712;BME280;5407;51.234;6.804;2023-11-19T09:11:42;100538.78;;;14.09;88.26
10712;BME280;5407;51.234;6.804;2023-11-19T09:14:09;100531.91;;;14.44;85.69
10712;BME280;5407;51.234;6.804;2023-11-19T09:16:36;100543.53;;;14.45;84.83
10712;BME280;5407;51.234;6.804;2023-11-19T09:19:05;100543.38;;;14.63;82.63
10712;BME280;5407;51.234;6.804;2023-11-19T09:21:31;100541.78;;;14.95;82.57
10712;BME280;5407;51.234;6.804;2023-11-19T09:24:00;100533.56;;;15.28;80.50
10712;BME280;5407;51.234;6.804;2023-11-19T09:26:27;100538.00;;;15.50;77.27
10712;BME280;5407;51.234;6.804;2023-11-19T09:28:54;100544.00;;;14.86;79.73
10712;BME280;5407;51.234;6.804;2023-11-19T09:31:21;100545.06;;;15.11;79.71
10712;BME280;5407;51.234;6.804;2023-11-19T09:33:48;100541.34;;;15.30;78.89
10712;BME280;5407;51.234;6.804;2023-11-19T09:36:17;100553.56;;;15.10;79.44
10712;BME280;5407;51.234;6.804;2023-11-19T09:38:44;100542.59;;;14.63;81.43
10712;BME280;5407;51.234;6.804;2023-11-19T09:41:13;100537.03;;;14.85;80.34
10712;BME280;5407;51.234;6.804;2023-11-19T09:43:40;100539.75;;;14.53;81.46
10712;BME280;5407;51.234;6.804;2023-11-19T09:46:09;100551.59;;;14.70;81.59
10712;BME280;5407;51.234;6.804;2023-11-19T09:48:37;100550.53;;;14.46;82.92
10712;BME280;5407;51.234;6.804;2023-11-19T09:51:06;100553.66;;;14.80;79.56
10712;BME280;5407;51.234;6.804;2023-11-19T09:53:35;100550.56;;;15.22;77.67
10712;BME280;5407;51.234;6.804;2023-11-19T09:56:03;100542.44;;;15.25;78.16
10712;BME280;5407;51.234;6.804;2023-11-19T09:58:30;100543.19;;;15.62;75.62
10712;BME280;5407;51.234;6.804;2023-11-19T10:00:58;100554.31;;;15.07;76.91
10712;BME280;5407;51.234;6.804;2023-11-19T10:03:26;100541.00;;;14.95;77.84
10712;BME280;5407;51.234;6.804;2023-11-19T10:05:54;100543.69;;;14.91;78.54
10712;BME280;5407;51.234;6.804;2023-11-19T10:08:22;100542.19;;;14.97;78.12
10712;BME280;5407;51.234;6.804;2023-11-19T10:10:50;100534.44;;;14.99;78.91
10712;BME280;5407;51.234;6.804;2023-11-19T10:13:17;100529.56;;;15.15;78.69
10712;BME280;5407;51.234;6.804;2023-11-19T10:15:45;100534.28;;;15.25;77.20
10712;BME280;5407;51.234;6.804;2023-11-19T10:18:14;100518.69;;;15.62;76.15
10712;BME280;5407;51.234;6.804;2023-11-19T10:20:41;100529.44;;;16.02;72.19
10712;BME280;5407;51.234;6.804;2023-11-19T10:23:08;100518.53;;;15.38;75.18
10712;BME280;5407;51.234;6.804;2023-11-19T10:25:36;100521.25;;;15.41;75.26
10712;BME280;5407;51.234;6.804;2023-11-19T10:28:04;100519.59;;;15.80;74.15
10712;BME280;5407;51.234;6.804;2023-11-19T10:30:31;100528.53;;;15.81;73.10
10712;BME280;5407;51.234;6.804;2023-11-19T10:33:07;100530.19;;;15.99;71.56
10712;BME280;5407;51.234;6.804;2023-11-19T10:35:36;100535.19;;;15.36;74.90
10712;BME280;5407;51.234;6.804;2023-11-19T10:38:13;100529.41;;;15.01;76.02
10712;BME280;5407;51.234;6.804;2023-11-19T10:40:41;100528.75;;;15.11;75.97
10712;BME280;5407;51.234;6.804;2023-11-19T10:43:09;100525.34;;;15.25;76.19
10712;BME280;5407;51.234;6.804;2023-11-19T10:45:36;100527.66;;;15.66;73.13
10712;BME280;5407;51.234;6.804;2023-11-19T10:48:03;100527.44;;;15.35;74.91
10712;BME280;5407;51.234;6.804;2023-11-19T10:50:32;100529.19;;;15.64;73.38
10712;BME280;5407;51.234;6.804;2023-11-19T10:53:00;100514.94;;;15.30;73.63
10712;BME280;5407;51.234;6.804;2023-11-19T10:55:28;100527.78;;;15.33;74.20
10712;BME280;5407;51.234;6.804;2023-11-19T10:57:59;100523.72;;;15.17;75.23
10712;BME280;5407;51.234;6.804;2023-11-19T11:00:29;100519.44;;;15.12;75.35
10712;BME280;5407;51.234;6.804;2023-11-19T11:03:01;100517.78;;;15.44;75.19
10712;BME280;5407;51.234;6.804;2023-11-19T11:05:29;100508.75;;;15.33;73.56
10712;BME280;5407;51.234;6.804;2023-11-19T11:08:00;100509.78;;;15.18;74.31
10712;BME280;5407;51.234;6.804;2023-11-19T11:10:28;100529.41;;;15.41;74.22
10712;BME280;5407;51.234;6.804;2023-11-19T11:12:59;100510.66;;;15.83;71.32
10712;BME280;5407;51.234;6.804;2023-11-19T11:15:31;100507.16;;;16.61;68.31
10712;BME280;5407;51.234;6.804;2023-11-19T11:18:00;100514.97;;;17.98;62.52
10712;BME280;5407;51.234;6.804;2023-11-19T11:20:29;100525.56;;;18.82;58.02
10712;BME280;5407;51.234;6.804;2023-11-19T11:25:56;100513.72;;;18.20;58.95
10712;BME280;5407;51.234;6.804;2023-11-19T11:28:33;100508.81;;;17.60;60.71
10712;BME280;5407;51.234;6.804;2023-11-19T11:31:34;100504.94;;;17.40;62.43
10712;BME280;5407;51.234;6.804;2023-11-19T11:37:18;100506.09;;;17.53;62.46
10712;BME280;5407;51.234;6.804;2023-11-19T11:39:46;100494.78;;;17.02;63.75
10712;BME280;5407;51.234;6.804;2023-11-19T11:42:33;100490.00;;;16.53;65.89
10712;BME280;5407;51.234;6.804;2023-11-19T11:45:02;100492.91;;;16.03;68.74
10712;BME280;5407;51.234;6.804;2023-11-19T11:50:47;100485.56;;;16.14;68.77
10712;BME280;5407;51.234;6.804;2023-11-19T11:53:20;100485.44;;;15.93;69.71
10712;BME280;5407;51.234;6.804;2023-11-19T11:55:57;100471.81;;;15.86;69.90
10712;BME280;5407;51.234;6.804;2023-11-19T11:58:27;100469.97;;;15.36;72.45
10712;BME280;5407;51.234;6.804;2023-11-19T12:00:57;100475.47;;;15.47;72.51
10712;BME280;5407;51.234;6.804;2023-11-19T12:03:27;100481.78;;;15.65;71.65
10712;BME280;5407;51.234;6.804;2023-11-19T12:05:55;100478.47;;;15.31;72.06
10712;BME280;5407;51.234;6.804;2023-11-19T12:08:25;100468.44;;;15.42;72.04
10712;BME280;5407;51.234;6.804;2023-11-19T12:10:54;100479.13;;;15.68;69.62
10712;BME280;5407;51.234;6.804;2023-11-19T12:13:24;100470.38;;;16.06;67.78
10712;BME280;5407;51.234;6.804;2023-11-19T12:16:10;100462.00;;;16.63;65.82
10712;BME280;5407;51.234;6.804;2023-11-19T12:18:40;100455.69;;;16.31;66.68
10712;BME280;5407;51.234;6.804;2023-11-19T12:21:09;100447.59;;;16.49;66.14
10712;BME280;5407;51.234;6.804;2023-11-19T12:23:47;100448.59;;;16.09;66.72
10712;BME280;5407;51.234;6.804;2023-11-19T12:26:30;100456.47;;;16.32;65.96
10712;BME280;5407;51.234;6.804;2023-11-19T12:28:58;100447.34;;;15.86;67.94
10712;BME280;5407;51.234;6.804;2023-11-19T12:31:25;100447.72;;;15.85;69.24
10712;BME280;5407;51.234;6.804;2023-11-19T12:33:52;100452.38;;;15.23;71.25
10712;BME280;5407;51.234;6.804;2023-11-19T12:36:20;100460.66;;;15.37;71.88
10712;BME280;5407;51.234;6.804;2023-11-19T12:38:48;100449.25;;;15.21;72.52
10712;BME280;5407;51.234;6.804;2023-11-19T12:41:16;100452.38;;;15.27;73.49
10712;BME280;5407;51.234;6.804;2023-11-19T12:43:46;100448.00;;;15.08;75.58
10712;BME280;5407;51.234;6.804;2023-11-19T12:46:20;100436.84;;;14.77;76.65
10712;BME280;5407;51.234;6.804;2023-11-19T12:48:48;100429.63;;;14.52;76.26
10712;BME280;5407;51.234;6.804;2023-11-19T12:51:15;100428.13;;;14.57;77.44
10712;BME280;5407;51.234;6.804;2023-11-19T12:53:50;100446.47;;;14.67;77.84
10712;BME280;5407;51.234;6.804;2023-11-19T12:56:20;100432.72;;;14.54;76.76
10712;BME280;5407;51.234;6.804;2023-11-19T12:58:47;100438.56;;;14.95;76.49
10712;BME280;5407;51.234;6.804;2023-11-19T13:01:16;100453.47;;;15.69;72.82
10712;BME280;5407;51.234;6.804;2023-11-19T13:03:45;100453.25;;;16.02;71.48
10712;BME280;5407;51.234;6.804;2023-11-19T13:06:13;100459.56;;;16.27;69.13
10712;BME280;5407;51.234;6.804;2023-11-19T13:08:42;100458.69;;;16.02;71.06
10712;BME280;5407;51.234;6.804;2023-11-19T13:11:12;100456.41;;;16.11;70.17